sensor_id;sensor_type;location;lat;lon;timestamp;P1;durP1;ratioP1;P2;durP2;ratioP2
37449;SDS011;23309;52.582;13.406;2022-11-12T00:00:01;10.10;;;4.07;;
37449;SDS011;23309;52.582;13.406;2022-11-12T00:02:27;6.57;;;4.00;;
37449;SDS011;23309;52.582;13.406;2022-11-12T00:04:56;7.50;;;3.63;;
37449;SDS011;23309;52.582;13.406;2022-11-12T00:07:22;4.77;;;3.70;;
37449;SDS011;23309;52.582;13.406;2022-11-12T00:09:49;6.07;;;4.13;;
37449;SDS011;23309;52.582;13.406;2022-11-12T00:12:15;5.50;;;3.90;;
37449;SDS011;23309;52.582;13.406;2022-11-12T00:14:41;5.27;;;3.50;;
37449;SDS011;23309;52.582;13.406;2022-11-12T00:17:07;9.63;;;3.80;;
37449;SDS011;23309;52.582;13.406;2022-11-12T00:19:33;6.27;;;3.60;;
37449;SDS011;23309;52.582;13.406;2022-11-12T00:22:02;5.03;;;3.77;;
37449;SDS011;23309;52.582;13.406;2022-11-12T00:24:28;7.60;;;3.83;;
37449;SDS011;23309;52.582;13.406;2022-11-12T00:26:54;5.80;;;3.77;;
37449;SDS011;23309;52.582;13.406;2022-11-12T00:29:20;10.03;;;3.77;;
37449;SDS011;23309;52.582;13.406;2022-11-12T00:31:46;10.97;;;4.07;;
37449;SDS011;23309;52.582;13.406;2022-11-12T00:34:12;6.17;;;4.47;;
37449;SDS011;23309;52.582;13.406;2022-11-12T00:36:39;6.90;;;4.27;;
37449;SDS011;23309;52.582;13.406;2022-11-12T00:39:07;9.33;;;3.80;;
37449;SDS011;23309;52.582;13.406;2022-11-12T00:41:34;5.43;;;3.30;;
37449;SDS011;23309;52.582;13.406;2022-11-12T00:44:00;6.57;;;3.70;;
37449;SDS011;23309;52.582;13.406;2022-11-12T00:46:27;6.80;;;4.20;;
37449;SDS011;23309;52.582;13.406;2022-11-12T00:48:53;5.60;;;3.57;;
37449;SDS011;23309;52.582;13.406;2022-11-12T00:51:19;4.57;;;3.43;;
37449;SDS011;23309;52.582;13.406;2022-11-12T00:53:45;5.90;;;3.67;;
37449;SDS011;23309;52.582;13.406;2022-11-12T00:56:14;6.13;;;3.80;;
37449;SDS011;23309;52.582;13.406;2022-11-12T00:58:40;5.40;;;3.77;;
37449;SDS011;23309;52.582;13.406;2022-11-12T01:01:08;4.20;;;3.47;;
37449;SDS011;23309;52.582;13.406;2022-11-12T01:03:37;6.77;;;4.23;;
37449;SDS011;23309;52.582;13.406;2022-11-12T01:06:05;6.53;;;3.67;;
37449;SDS011;23309;52.582;13.406;2022-11-12T01:08:33;4.87;;;3.40;;
37449;SDS011;23309;52.582;13.406;2022-11-12T01:11:04;7.87;;;3.57;;
37449;SDS011;23309;52.582;13.406;2022-11-12T01:13:35;4.77;;;3.77;;
37449;SDS011;23309;52.582;13.406;2022-11-12T01:16:05;7.07;;;4.00;;
37449;SDS011;23309;52.582;13.406;2022-11-12T01:18:33;6.30;;;3.90;;
37449;SDS011;23309;52.582;13.406;2022-11-12T01:20:59;4.20;;;3.40;;
37449;SDS011;23309;52.582;13.406;2022-11-12T01:23:28;4.93;;;3.73;;
37449;SDS011;23309;52.582;13.406;2022-11-12T01:25:57;5.37;;;3.40;;
37449;SDS011;23309;52.582;13.406;2022-11-12T01:28:27;5.03;;;3.47;;
37449;SDS011;23309;52.582;13.406;2022-11-12T01:30:56;5.13;;;3.30;;
37449;SDS011;23309;52.582;13.406;2022-11-12T01:33:22;6.07;;;3.90;;
37449;SDS011;23309;52.582;13.406;2022-11-12T01:35:48;6.63;;;3.27;;
37449;SDS011;23309;52.582;13.406;2022-11-12T01:38:14;6.40;;;3.93;;
37449;SDS011;23309;52.582;13.406;2022-11-12T01:40:40;7.37;;;3.67;;
37449;SDS011;23309;52.582;13.406;2022-11-12T01:43:08;6.50;;;3.73;;
37449;SDS011;23309;52.582;13.406;2022-11-12T01:45:37;5.00;;;3.60;;
37449;SDS011;23309;52.582;13.406;2022-11-12T01:48:23;4.87;;;3.37;;
37449;SDS011;23309;52.582;13.406;2022-11-12T01:50:52;6.03;;;3.83;;
37449;SDS011;23309;52.582;13.406;2022-11-12T01:53:21;5.20;;;3.10;;
37449;SDS011;23309;52.582;13.406;2022-11-12T01:55:51;4.40;;;3.23;;
37449;SDS011;23309;52.582;13.406;2022-11-12T01:58:19;4.80;;;3.73;;
37449;SDS011;23309;52.582;13.406;2022-11-12T02:00:51;5.37;;;3.50;;
37449;SDS011;23309;52.582;13.406;2022-11-12T02:03:21;5.30;;;3.60;;
37449;SDS011;23309;52.582;13.406;2022-11-12T02:05:50;6.07;;;3.50;;
37449;SDS011;23309;52.582;13.406;2022-11-12T02:08:20;4.77;;;3.40;;
37449;SDS011;23309;52.582;13.406;2022-11-12T02:10:48;6.80;;;3.50;;
37449;SDS011;23309;52.582;13.406;2022-11-12T02:13:15;5.50;;;3.40;;
37449;SDS011;23309;52.582;13.406;2022-11-12T02:15:41;3.83;;;2.80;;
37449;SDS011;23309;52.582;13.406;2022-11-12T02:18:09;6.37;;;3.40;;
37449;SDS011;23309;52.582;13.406;2022-11-12T02:20:37;7.70;;;3.50;;
37449;SDS011;23309;52.582;13.406;2022-11-12T02:23:06;3.50;;;2.77;;
37449;SDS011;23309;52.582;13.406;2022-11-12T02:25:33;7.43;;;3.57;;
37449;SDS011;23309;52.582;13.406;2022-11-12T02:28:00;6.67;;;3.23;;
37449;SDS011;23309;52.582;13.406;2022-11-12T02:30:33;5.20;;;3.30;;
37449;SDS011;23309;52.582;13.406;2022-11-12T02:33:01;6.20;;;3.60;;
37449;SDS011;23309;52.582;13.406;2022-11-12T02:35:27;4.57;;;3.30;;
37449;SDS011;23309;52.582;13.406;2022-11-12T02:37:54;5.10;;;3.33;;
37449;SDS011;23309;52.582;13.406;2022-11-12T02:40:22;5.23;;;3.27;;
37449;SDS011;23309;52.582;13.406;2022-11-12T02:42:49;5.10;;;3.60;;
37449;SDS011;23309;52.582;13.406;2022-11-12T02:45:15;7.63;;;3.20;;
37449;SDS011;23309;52.582;13.406;2022-11-12T02:47:42;5.13;;;3.20;;
37449;SDS011;23309;52.582;13.406;2022-11-12T02:50:09;5.73;;;3.20;;
37449;SDS011;23309;52.582;13.406;2022-11-12T02:52:36;9.30;;;3.30;;
37449;SDS011;23309;52.582;13.406;2022-11-12T02:55:02;6.50;;;3.60;;
37449;SDS011;23309;52.582;13.406;2022-11-12T02:57:32;4.50;;;3.10;;
37449;SDS011;23309;52.582;13.406;2022-11-12T02:59:58;4.20;;;3.33;;
37449;SDS011;23309;52.582;13.406;2022-11-12T03:02:25;9.23;;;3.20;;
37449;SDS011;23309;52.582;13.406;2022-11-12T03:04:51;5.20;;;3.53;;
37449;SDS011;23309;52.582;13.406;2022-11-12T03:07:17;5.90;;;3.37;;
37449;SDS011;23309;52.582;13.406;2022-11-12T03:09:43;5.10;;;3.00;;
37449;SDS011;23309;52.582;13.406;2022-11-12T03:12:09;5.27;;;3.63;;
37449;SDS011;23309;52.582;13.406;2022-11-12T03:14:38;4.20;;;3.00;;
37449;SDS011;23309;52.582;13.406;2022-11-12T03:17:04;5.20;;;3.13;;
37449;SDS011;23309;52.582;13.406;2022-11-12T03:19:30;4.10;;;3.27;;
37449;SDS011;23309;52.582;13.406;2022-11-12T03:21:56;8.27;;;3.40;;
37449;SDS011;23309;52.582;13.406;2022-11-12T03:24:22;6.70;;;3.30;;
37449;SDS011;23309;52.582;13.406;2022-11-12T03:26:48;4.83;;;3.30;;
37449;SDS011;23309;52.582;13.406;2022-11-12T03:29:14;3.80;;;2.93;;
37449;SDS011;23309;52.582;13.406;2022-11-12T03:31:43;4.70;;;3.27;;
37449;SDS011;23309;52.582;13.406;2022-11-12T03:34:09;6.47;;;3.77;;
37449;SDS011;23309;52.582;13.406;2022-11-12T03:36:36;5.20;;;3.70;;
37449;SDS011;23309;52.582;13.406;2022-11-12T03:39:02;5.50;;;3.40;;
37449;SDS011;23309;52.582;13.406;2022-11-12T03:41:28;4.33;;;3.30;;
37449;SDS011;23309;52.582;13.406;2022-11-12T03:43:54;5.83;;;3.30;;
37449;SDS011;23309;52.582;13.406;2022-11-12T03:46:20;6.17;;;3.27;;
37449;SDS011;23309;52.582;13.406;2022-11-12T03:48:49;4.97;;;3.47;;
37449;SDS011;23309;52.582;13.406;2022-11-12T03:51:15;6.33;;;3.30;;
37449;SDS011;23309;52.582;13.406;2022-11-12T03:53:41;4.10;;;3.00;;
37449;SDS011;23309;52.582;13.406;2022-11-12T03:56:07;3.93;;;3.00;;
37449;SDS011;23309;52.582;13.406;2022-11-12T03:58:34;6.50;;;3.70;;
37449;SDS011;23309;52.582;13.406;2022-11-12T04:01:00;5.50;;;3.13;;
37449;SDS011;23309;52.582;13.406;2022-11-12T04:03:27;5.10;;;2.90;;
37449;SDS011;23309;52.582;13.406;2022-11-12T04:05:55;4.30;;;3.03;;
37449;SDS011;23309;52.582;13.406;2022-11-12T04:08:22;4.57;;;3.00;;
37449;SDS011;23309;52.582;13.406;2022-11-12T04:10:49;5.00;;;3.00;;
37449;SDS011;23309;52.582;13.406;2022-11-12T04:13:16;5.37;;;3.33;;
37449;SDS011;23309;52.582;13.406;2022-11-12T04:15:43;3.23;;;2.93;;
37449;SDS011;23309;52.582;13.406;2022-11-12T04:18:09;5.37;;;2.83;;
37449;SDS011;23309;52.582;13.406;2022-11-12T04:20:35;5.17;;;2.90;;
37449;SDS011;23309;52.582;13.406;2022-11-12T04:23:04;6.40;;;3.13;;
37449;SDS011;23309;52.582;13.406;2022-11-12T04:25:30;5.90;;;3.23;;
37449;SDS011;23309;52.582;13.406;2022-11-12T04:27:56;4.00;;;3.00;;
37449;SDS011;23309;52.582;13.406;2022-11-12T04:30:22;5.77;;;3.60;;
37449;SDS011;23309;52.582;13.406;2022-11-12T04:32:49;3.40;;;3.00;;
37449;SDS011;23309;52.582;13.406;2022-11-12T04:35:16;3.77;;;2.47;;
37449;SDS011;23309;52.582;13.406;2022-11-12T04:37:43;4.07;;;3.10;;
37449;SDS011;23309;52.582;13.406;2022-11-12T04:40:12;4.13;;;2.93;;
37449;SDS011;23309;52.582;13.406;2022-11-12T04:42:40;8.10;;;3.30;;
37449;SDS011;23309;52.582;13.406;2022-11-12T04:45:11;4.80;;;3.13;;
37449;SDS011;23309;52.582;13.406;2022-11-12T04:47:38;5.33;;;3.10;;
37449;SDS011;23309;52.582;13.406;2022-11-12T04:50:06;5.30;;;3.33;;
37449;SDS011;23309;52.582;13.406;2022-11-12T04:52:38;5.80;;;3.20;;
37449;SDS011;23309;52.582;13.406;2022-11-12T04:55:04;3.90;;;2.60;;
37449;SDS011;23309;52.582;13.406;2022-11-12T04:57:34;4.83;;;3.03;;
37449;SDS011;23309;52.582;13.406;2022-11-12T05:00:01;4.40;;;3.10;;
37449;SDS011;23309;52.582;13.406;2022-11-12T05:02:29;3.57;;;2.77;;
37449;SDS011;23309;52.582;13.406;2022-11-12T05:04:55;3.37;;;2.90;;
37449;SDS011;23309;52.582;13.406;2022-11-12T05:07:21;3.43;;;2.93;;
37449;SDS011;23309;52.582;13.406;2022-11-12T05:09:47;4.17;;;3.10;;
37449;SDS011;23309;52.582;13.406;2022-11-12T05:12:13;4.23;;;2.80;;
37449;SDS011;23309;52.582;13.406;2022-11-12T05:14:42;5.60;;;2.83;;
37449;SDS011;23309;52.582;13.406;2022-11-12T05:17:08;2.67;;;2.40;;
37449;SDS011;23309;52.582;13.406;2022-11-12T05:19:34;3.87;;;2.60;;
37449;SDS011;23309;52.582;13.406;2022-11-12T05:22:00;3.63;;;2.80;;
37449;SDS011;23309;52.582;13.406;2022-11-12T05:24:27;3.20;;;2.90;;
37449;SDS011;23309;52.582;13.406;2022-11-12T05:26:53;5.87;;;3.10;;
37449;SDS011;23309;52.582;13.406;2022-11-12T05:29:19;5.50;;;3.10;;
37449;SDS011;23309;52.582;13.406;2022-11-12T05:31:48;4.57;;;2.80;;
37449;SDS011;23309;52.582;13.406;2022-11-12T05:34:14;4.97;;;3.23;;
37449;SDS011;23309;52.582;13.406;2022-11-12T05:36:40;3.53;;;3.13;;
37449;SDS011;23309;52.582;13.406;2022-11-12T05:39:06;4.47;;;2.67;;
37449;SDS011;23309;52.582;13.406;2022-11-12T05:41:32;6.17;;;3.70;;
37449;SDS011;23309;52.582;13.406;2022-11-12T05:43:58;5.17;;;3.10;;
37449;SDS011;23309;52.582;13.406;2022-11-12T05:46:24;5.20;;;2.80;;
37449;SDS011;23309;52.582;13.406;2022-11-12T05:48:53;5.10;;;3.37;;
37449;SDS011;23309;52.582;13.406;2022-11-12T05:51:19;3.93;;;3.13;;
37449;SDS011;23309;52.582;13.406;2022-11-12T05:53:46;4.33;;;3.20;;
37449;SDS011;23309;52.582;13.406;2022-11-12T05:56:12;4.13;;;2.80;;
37449;SDS011;23309;52.582;13.406;2022-11-12T05:58:38;4.10;;;3.00;;
37449;SDS011;23309;52.582;13.406;2022-11-12T06:01:04;4.37;;;3.30;;
37449;SDS011;23309;52.582;13.406;2022-11-12T06:03:31;3.27;;;2.90;;
37449;SDS011;23309;52.582;13.406;2022-11-12T06:06:00;5.20;;;3.47;;
37449;SDS011;23309;52.582;13.406;2022-11-12T06:08:26;5.77;;;3.37;;
37449;SDS011;23309;52.582;13.406;2022-11-12T06:10:52;4.53;;;3.50;;
37449;SDS011;23309;52.582;13.406;2022-11-12T06:13:20;6.40;;;3.73;;
37449;SDS011;23309;52.582;13.406;2022-11-12T06:15:48;3.70;;;3.00;;
37449;SDS011;23309;52.582;13.406;2022-11-12T06:18:15;4.77;;;3.20;;
37449;SDS011;23309;52.582;13.406;2022-11-12T06:20:41;7.17;;;3.10;;
37449;SDS011;23309;52.582;13.406;2022-11-12T06:23:10;3.90;;;3.20;;
37449;SDS011;23309;52.582;13.406;2022-11-12T06:25:36;3.30;;;2.60;;
37449;SDS011;23309;52.582;13.406;2022-11-12T06:28:02;4.70;;;3.17;;
37449;SDS011;23309;52.582;13.406;2022-11-12T06:30:29;5.57;;;3.20;;
37449;SDS011;23309;52.582;13.406;2022-11-12T06:32:55;4.70;;;3.10;;
37449;SDS011;23309;52.582;13.406;2022-11-12T06:35:21;7.10;;;3.43;;
37449;SDS011;23309;52.582;13.406;2022-11-12T06:37:48;7.17;;;3.20;;
37449;SDS011;23309;52.582;13.406;2022-11-12T06:40:16;5.77;;;3.27;;
37449;SDS011;23309;52.582;13.406;2022-11-12T06:42:43;4.90;;;3.03;;
37449;SDS011;23309;52.582;13.406;2022-11-12T06:45:09;3.27;;;2.97;;
37449;SDS011;23309;52.582;13.406;2022-11-12T06:47:35;6.53;;;3.70;;
37449;SDS011;23309;52.582;13.406;2022-11-12T06:50:30;5.70;;;3.23;;
37449;SDS011;23309;52.582;13.406;2022-11-12T06:52:57;4.53;;;3.57;;
37449;SDS011;23309;52.582;13.406;2022-11-12T06:55:23;6.00;;;3.97;;
37449;SDS011;23309;52.582;13.406;2022-11-12T06:57:50;8.43;;;4.17;;
37449;SDS011;23309;52.582;13.406;2022-11-12T07:00:16;11.23;;;3.87;;
37449;SDS011;23309;52.582;13.406;2022-11-12T07:02:43;7.43;;;3.73;;
37449;SDS011;23309;52.582;13.406;2022-11-12T07:05:09;6.27;;;3.50;;
37449;SDS011;23309;52.582;13.406;2022-11-12T07:07:38;7.77;;;3.97;;
37449;SDS011;23309;52.582;13.406;2022-11-12T07:10:04;6.50;;;4.00;;
37449;SDS011;23309;52.582;13.406;2022-11-12T07:12:32;5.87;;;3.90;;
37449;SDS011;23309;52.582;13.406;2022-11-12T07:14:58;5.17;;;3.70;;
37449;SDS011;23309;52.582;13.406;2022-11-12T07:17:24;5.90;;;3.70;;
37449;SDS011;23309;52.582;13.406;2022-11-12T07:19:50;8.47;;;3.47;;
37449;SDS011;23309;52.582;13.406;2022-11-12T07:22:16;7.53;;;4.30;;
37449;SDS011;23309;52.582;13.406;2022-11-12T07:24:45;7.33;;;4.30;;
37449;SDS011;23309;52.582;13.406;2022-11-12T07:27:11;8.23;;;4.57;;
37449;SDS011;23309;52.582;13.406;2022-11-12T07:29:37;8.27;;;4.30;;
37449;SDS011;23309;52.582;13.406;2022-11-12T07:32:04;6.67;;;4.00;;
37449;SDS011;23309;52.582;13.406;2022-11-12T07:34:30;8.40;;;4.30;;
37449;SDS011;23309;52.582;13.406;2022-11-12T07:36:56;7.03;;;3.87;;
37449;SDS011;23309;52.582;13.406;2022-11-12T07:39:22;6.87;;;3.80;;
37449;SDS011;23309;52.582;13.406;2022-11-12T07:41:50;7.77;;;4.30;;
37449;SDS011;23309;52.582;13.406;2022-11-12T07:44:16;7.50;;;4.03;;
37449;SDS011;23309;52.582;13.406;2022-11-12T07:46:42;8.30;;;5.03;;
37449;SDS011;23309;52.582;13.406;2022-11-12T07:49:08;9.30;;;5.67;;
37449;SDS011;23309;52.582;13.406;2022-11-12T07:51:35;7.37;;;5.80;;
37449;SDS011;23309;52.582;13.406;2022-11-12T07:54:01;7.20;;;6.23;;
37449;SDS011;23309;52.582;13.406;2022-11-12T07:56:27;13.10;;;6.97;;
37449;SDS011;23309;52.582;13.406;2022-11-12T07:58:56;11.43;;;7.77;;
37449;SDS011;23309;52.582;13.406;2022-11-12T08:01:23;11.43;;;7.30;;
37449;SDS011;23309;52.582;13.406;2022-11-12T08:03:54;11.10;;;8.10;;
37449;SDS011;23309;52.582;13.406;2022-11-12T08:06:20;12.43;;;7.00;;
37449;SDS011;23309;52.582;13.406;2022-11-12T08:08:46;8.77;;;6.10;;
37449;SDS011;23309;52.582;13.406;2022-11-12T08:11:15;10.63;;;6.47;;
37449;SDS011;23309;52.582;13.406;2022-11-12T08:13:41;8.13;;;5.90;;
37449;SDS011;23309;52.582;13.406;2022-11-12T08:16:10;8.40;;;5.77;;
37449;SDS011;23309;52.582;13.406;2022-11-12T08:18:36;8.00;;;5.30;;
37449;SDS011;23309;52.582;13.406;2022-11-12T08:21:03;11.07;;;5.50;;
37449;SDS011;23309;52.582;13.406;2022-11-12T08:23:31;15.23;;;5.57;;
37449;SDS011;23309;52.582;13.406;2022-11-12T08:25:57;8.70;;;5.10;;
37449;SDS011;23309;52.582;13.406;2022-11-12T08:28:24;5.77;;;4.27;;
37449;SDS011;23309;52.582;13.406;2022-11-12T08:30:50;6.43;;;4.50;;
37449;SDS011;23309;52.582;13.406;2022-11-12T08:33:19;9.10;;;4.93;;
37449;SDS011;23309;52.582;13.406;2022-11-12T08:35:45;9.40;;;4.57;;
37449;SDS011;23309;52.582;13.406;2022-11-12T08:38:11;9.00;;;4.60;;
37449;SDS011;23309;52.582;13.406;2022-11-12T08:40:37;7.07;;;5.47;;
37449;SDS011;23309;52.582;13.406;2022-11-12T08:43:04;6.10;;;4.80;;
37449;SDS011;23309;52.582;13.406;2022-11-12T08:45:32;7.90;;;5.53;;
37449;SDS011;23309;52.582;13.406;2022-11-12T08:48:01;9.40;;;5.90;;
37449;SDS011;23309;52.582;13.406;2022-11-12T08:50:32;10.90;;;5.73;;
37449;SDS011;23309;52.582;13.406;2022-11-12T08:52:59;9.37;;;6.33;;
37449;SDS011;23309;52.582;13.406;2022-11-12T08:55:26;9.10;;;6.10;;
37449;SDS011;23309;52.582;13.406;2022-11-12T08:57:52;10.00;;;6.80;;
37449;SDS011;23309;52.582;13.406;2022-11-12T09:00:18;10.77;;;7.20;;
37449;SDS011;23309;52.582;13.406;2022-11-12T09:02:45;9.80;;;7.20;;
37449;SDS011;23309;52.582;13.406;2022-11-12T09:05:11;11.67;;;7.47;;
37449;SDS011;23309;52.582;13.406;2022-11-12T09:07:39;13.53;;;7.83;;
37449;SDS011;23309;52.582;13.406;2022-11-12T09:10:06;9.80;;;7.80;;
37449;SDS011;23309;52.582;13.406;2022-11-12T09:12:32;14.00;;;7.73;;
37449;SDS011;23309;52.582;13.406;2022-11-12T09:14:58;10.07;;;7.80;;
37449;SDS011;23309;52.582;13.406;2022-11-12T09:17:24;14.97;;;8.57;;
37449;SDS011;23309;52.582;13.406;2022-11-12T09:19:51;13.17;;;7.77;;
37449;SDS011;23309;52.582;13.406;2022-11-12T09:22:17;11.80;;;7.90;;
37449;SDS011;23309;52.582;13.406;2022-11-12T09:24:46;13.47;;;8.20;;
37449;SDS011;23309;52.582;13.406;2022-11-12T09:27:12;12.90;;;7.63;;
37449;SDS011;23309;52.582;13.406;2022-11-12T09:29:38;11.23;;;7.60;;
37449;SDS011;23309;52.582;13.406;2022-11-12T09:32:04;15.40;;;8.27;;
37449;SDS011;23309;52.582;13.406;2022-11-12T09:34:30;12.50;;;7.67;;
37449;SDS011;23309;52.582;13.406;2022-11-12T09:36:56;13.77;;;7.47;;
37449;SDS011;23309;52.582;13.406;2022-11-12T09:39:22;12.03;;;7.17;;
37449;SDS011;23309;52.582;13.406;2022-11-12T09:41:51;12.03;;;7.50;;
37449;SDS011;23309;52.582;13.406;2022-11-12T09:44:18;12.70;;;7.70;;
37449;SDS011;23309;52.582;13.406;2022-11-12T09:46:46;14.50;;;7.20;;
37449;SDS011;23309;52.582;13.406;2022-11-12T09:49:17;10.20;;;6.60;;
37449;SDS011;23309;52.582;13.406;2022-11-12T09:51:49;9.50;;;6.97;;
37449;SDS011;23309;52.582;13.406;2022-11-12T09:54:20;11.80;;;6.60;;
37449;SDS011;23309;52.582;13.406;2022-11-12T09:56:52;9.13;;;6.23;;
37449;SDS011;23309;52.582;13.406;2022-11-12T09:59:18;9.40;;;5.97;;
37449;SDS011;23309;52.582;13.406;2022-11-12T10:01:53;7.50;;;5.63;;
37449;SDS011;23309;52.582;13.406;2022-11-12T10:04:35;9.00;;;6.23;;
37449;SDS011;23309;52.582;13.406;2022-11-12T10:07:46;8.97;;;6.63;;
37449;SDS011;23309;52.582;13.406;2022-11-12T10:10:28;11.70;;;5.63;;
37449;SDS011;23309;52.582;13.406;2022-11-12T10:13:08;8.80;;;5.60;;
37449;SDS011;23309;52.582;13.406;2022-11-12T10:15:52;12.27;;;6.37;;
37449;SDS011;23309;52.582;13.406;2022-11-12T10:18:43;11.93;;;6.37;;
37449;SDS011;23309;52.582;13.406;2022-11-12T10:21:21;12.47;;;6.13;;
37449;SDS011;23309;52.582;13.406;2022-11-12T10:23:57;8.97;;;5.10;;
37449;SDS011;23309;52.582;13.406;2022-11-12T10:26:25;10.97;;;6.53;;
37449;SDS011;23309;52.582;13.406;2022-11-12T10:28:54;9.13;;;6.10;;
37449;SDS011;23309;52.582;13.406;2022-11-12T10:31:31;11.17;;;6.93;;
37449;SDS011;23309;52.582;13.406;2022-11-12T10:34:04;9.53;;;6.20;;
37449;SDS011;23309;52.582;13.406;2022-11-12T10:36:45;14.93;;;6.90;;
37449;SDS011;23309;52.582;13.406;2022-11-12T10:42:02;12.47;;;6.80;;
37449;SDS011;23309;52.582;13.406;2022-11-12T10:44:37;11.47;;;6.50;;
37449;SDS011;23309;52.582;13.406;2022-11-12T10:50:05;11.63;;;6.90;;
37449;SDS011;23309;52.582;13.406;2022-11-12T10:52:51;10.97;;;6.60;;
37449;SDS011;23309;52.582;13.406;2022-11-12T10:55:24;11.10;;;6.70;;
37449;SDS011;23309;52.582;13.406;2022-11-12T10:58:06;12.03;;;6.87;;
37449;SDS011;23309;52.582;13.406;2022-11-12T11:00:53;12.03;;;7.20;;
37449;SDS011;23309;52.582;13.406;2022-11-12T11:03:22;13.73;;;7.23;;
37449;SDS011;23309;52.582;13.406;2022-11-12T11:05:52;8.90;;;6.80;;
37449;SDS011;23309;52.582;13.406;2022-11-12T11:08:32;11.80;;;6.83;;
37449;SDS011;23309;52.582;13.406;2022-11-12T11:13:49;14.17;;;7.47;;
37449;SDS011;23309;52.582;13.406;2022-11-12T11:16:21;12.33;;;6.87;;
37449;SDS011;23309;52.582;13.406;2022-11-12T11:18:49;13.23;;;6.27;;
37449;SDS011;23309;52.582;13.406;2022-11-12T11:21:24;12.40;;;6.13;;
37449;SDS011;23309;52.582;13.406;2022-11-12T11:24:21;17.10;;;5.90;;
37449;SDS011;23309;52.582;13.406;2022-11-12T11:27:03;10.33;;;6.37;;
37449;SDS011;23309;52.582;13.406;2022-11-12T11:29:43;9.67;;;6.30;;
37449;SDS011;23309;52.582;13.406;2022-11-12T11:32:56;9.97;;;5.43;;
37449;SDS011;23309;52.582;13.406;2022-11-12T11:35:54;12.13;;;6.17;;
37449;SDS011;23309;52.582;13.406;2022-11-12T11:38:32;10.43;;;5.50;;
37449;SDS011;23309;52.582;13.406;2022-11-12T11:41:14;11.63;;;6.10;;
37449;SDS011;23309;52.582;13.406;2022-11-12T11:43:55;11.70;;;6.63;;
37449;SDS011;23309;52.582;13.406;2022-11-12T11:46:35;7.33;;;5.30;;
37449;SDS011;23309;52.582;13.406;2022-11-12T11:49:21;10.27;;;5.80;;
37449;SDS011;23309;52.582;13.406;2022-11-12T11:52:13;14.70;;;6.10;;
37449;SDS011;23309;52.582;13.406;2022-11-12T11:55:13;8.93;;;6.07;;
37449;SDS011;23309;52.582;13.406;2022-11-12T11:57:58;10.30;;;6.63;;
37449;SDS011;23309;52.582;13.406;2022-11-12T12:00:39;13.83;;;6.40;;
37449;SDS011;23309;52.582;13.406;2022-11-12T12:03:19;11.10;;;5.60;;
37449;SDS011;23309;52.582;13.406;2022-11-12T12:06:02;10.80;;;5.20;;
37449;SDS011;23309;52.582;13.406;2022-11-12T12:08:52;14.80;;;5.57;;
37449;SDS011;23309;52.582;13.406;2022-11-12T12:11:34;8.17;;;5.63;;
37449;SDS011;23309;52.582;13.406;2022-11-12T12:14:19;11.53;;;5.60;;
37449;SDS011;23309;52.582;13.406;2022-11-12T12:17:11;7.73;;;5.77;;
37449;SDS011;23309;52.582;13.406;2022-11-12T12:19:51;8.60;;;5.40;;
37449;SDS011;23309;52.582;13.406;2022-11-12T12:22:32;9.10;;;5.83;;
37449;SDS011;23309;52.582;13.406;2022-11-12T12:25:06;9.33;;;6.77;;
37449;SDS011;23309;52.582;13.406;2022-11-12T12:27:39;10.80;;;6.40;;
37449;SDS011;23309;52.582;13.406;2022-11-12T12:30:17;11.43;;;6.00;;
37449;SDS011;23309;52.582;13.406;2022-11-12T12:32:47;11.20;;;6.10;;
37449;SDS011;23309;52.582;13.406;2022-11-12T12:35:20;9.07;;;5.90;;
37449;SDS011;23309;52.582;13.406;2022-11-12T12:37:54;14.63;;;6.70;;
37449;SDS011;23309;52.582;13.406;2022-11-12T12:40:32;13.70;;;6.60;;
37449;SDS011;23309;52.582;13.406;2022-11-12T12:43:04;12.40;;;6.60;;
37449;SDS011;23309;52.582;13.406;2022-11-12T12:45:38;11.63;;;5.73;;
37449;SDS011;23309;52.582;13.406;2022-11-12T12:48:10;10.40;;;6.20;;
37449;SDS011;23309;52.582;13.406;2022-11-12T12:50:42;11.60;;;6.20;;
37449;SDS011;23309;52.582;13.406;2022-11-12T12:53:29;9.77;;;5.43;;
37449;SDS011;23309;52.582;13.406;2022-11-12T12:55:58;10.40;;;6.37;;
37449;SDS011;23309;52.582;13.406;2022-11-12T12:58:28;12.03;;;6.83;;
37449;SDS011;23309;52.582;13.406;2022-11-12T13:00:58;10.77;;;6.90;;
37449;SDS011;23309;52.582;13.406;2022-11-12T13:06:22;12.07;;;6.57;;
37449;SDS011;23309;52.582;13.406;2022-11-12T13:08:56;13.00;;;6.13;;
37449;SDS011;23309;52.582;13.406;2022-11-12T13:17:40;10.47;;;6.90;;
37449;SDS011;23309;52.582;13.406;2022-11-12T13:23:07;13.37;;;5.80;;
37449;SDS011;23309;52.582;13.406;2022-11-12T13:25:55;12.43;;;6.30;;
37449;SDS011;23309;52.582;13.406;2022-11-12T13:29:24;11.70;;;6.60;;
37449;SDS011;23309;52.582;13.406;2022-11-12T13:35:25;10.73;;;6.17;;
37449;SDS011;23309;52.582;13.406;2022-11-12T13:38:02;11.70;;;6.90;;
37449;SDS011;23309;52.582;13.406;2022-11-12T13:40:37;11.57;;;6.37;;
37449;SDS011;23309;52.582;13.406;2022-11-12T13:43:15;10.30;;;6.20;;
37449;SDS011;23309;52.582;13.406;2022-11-12T13:45:56;6.53;;;5.63;;
37449;SDS011;23309;52.582;13.406;2022-11-12T13:48:31;11.67;;;5.50;;
37449;SDS011;23309;52.582;13.406;2022-11-12T13:51:05;11.43;;;6.03;;
37449;SDS011;23309;52.582;13.406;2022-11-12T13:53:40;7.77;;;5.37;;
37449;SDS011;23309;52.582;13.406;2022-11-12T13:56:08;10.23;;;5.60;;
37449;SDS011;23309;52.582;13.406;2022-11-12T13:58:38;8.73;;;5.40;;
37449;SDS011;23309;52.582;13.406;2022-11-12T14:01:05;8.87;;;5.80;;
37449;SDS011;23309;52.582;13.406;2022-11-12T14:03:33;8.90;;;5.60;;
37449;SDS011;23309;52.582;13.406;2022-11-12T14:06:12;16.27;;;6.57;;
37449;SDS011;23309;52.582;13.406;2022-11-12T14:08:48;10.70;;;5.57;;
37449;SDS011;23309;52.582;13.406;2022-11-12T14:14:32;7.70;;;5.17;;
37449;SDS011;23309;52.582;13.406;2022-11-12T14:17:19;12.10;;;6.17;;
37449;SDS011;23309;52.582;13.406;2022-11-12T14:20:07;11.37;;;5.43;;
37449;SDS011;23309;52.582;13.406;2022-11-12T14:22:48;8.07;;;5.30;;
37449;SDS011;23309;52.582;13.406;2022-11-12T14:25:16;16.80;;;5.60;;
37449;SDS011;23309;52.582;13.406;2022-11-12T14:27:44;13.67;;;6.30;;
37449;SDS011;23309;52.582;13.406;2022-11-12T14:30:15;10.80;;;5.80;;
37449;SDS011;23309;52.582;13.406;2022-11-12T14:32:45;11.50;;;5.57;;
37449;SDS011;23309;52.582;13.406;2022-11-12T14:35:28;14.37;;;5.70;;
37449;SDS011;23309;52.582;13.406;2022-11-12T14:38:04;8.00;;;4.83;;
37449;SDS011;23309;52.582;13.406;2022-11-12T14:40:44;10.40;;;5.23;;
37449;SDS011;23309;52.582;13.406;2022-11-12T14:43:18;10.37;;;4.83;;
37449;SDS011;23309;52.582;13.406;2022-11-12T14:45:56;11.90;;;5.60;;
37449;SDS011;23309;52.582;13.406;2022-11-12T14:48:25;8.57;;;4.63;;
37449;SDS011;23309;52.582;13.406;2022-11-12T14:50:54;10.23;;;4.47;;
37449;SDS011;23309;52.582;13.406;2022-11-12T14:53:34;10.07;;;4.67;;
37449;SDS011;23309;52.582;13.406;2022-11-12T14:56:05;7.80;;;4.43;;
37449;SDS011;23309;52.582;13.406;2022-11-12T14:58:35;11.10;;;4.80;;
37449;SDS011;23309;52.582;13.406;2022-11-12T15:01:19;9.87;;;4.73;;
37449;SDS011;23309;52.582;13.406;2022-11-12T15:03:48;8.20;;;4.20;;
37449;SDS011;23309;52.582;13.406;2022-11-12T15:06:18;8.20;;;4.53;;
37449;SDS011;23309;52.582;13.406;2022-11-12T15:08:54;7.20;;;4.50;;
37449;SDS011;23309;52.582;13.406;2022-11-12T15:11:23;10.17;;;5.10;;
37449;SDS011;23309;52.582;13.406;2022-11-12T15:13:54;7.77;;;4.50;;
37449;SDS011;23309;52.582;13.406;2022-11-12T15:16:26;8.00;;;4.57;;